My Other Sites:

Weather34 Aurora MKIIsikeawx.alinos.eu

SYKIA METEOTEMPLATEsykiameteo.alinos.eu

alinos.eualinos.eu



Nearby METAR Reports

   
LGEL - Elefsis (hel-Afb, Greece
Distance from station: E 77 km
Updated: 05-07-2022 08:20
Clear  
Clear  
   Wind: NNW 25.9 km/h
Wind: NNW 25.9 km/h
Temperature: 27°C
Dew Point: 11°C
Humidity: 37%
Barometer: 1011 hPa
Visibility: More than 10 km
Cloud details: Clear
LGEL 050520Z 33014KT CAVOK 27/11 Q1011
LGRX - Araxos (civ/Afb), Greece
Distance from station: W 110 km
Updated: 05-07-2022 08:20
Clear  
Clear  
   Wind: varies 5.6 km/h
Wind: varies 5.6 km/h
Temperature: 27°C
Dew Point: 11°C
Humidity: 37%
Barometer: 1012 hPa
Visibility: More than 10 km
Cloud details: Clear
LGRX 050520Z VRB03KT CAVOK 27/11 Q1012
LGAV - Athens/Elef-Ven, Greece
Distance from station: E 113 km
Updated: 05-07-2022 08:20
Clear  
Clear  
   Wind: North 25.9 km/h
Wind: North 25.9 km/h
Temperature: 27°C
Dew Point: 7°C
Humidity: 28%
Barometer: 1012 hPa
Visibility: More than 10 km
Cloud details: Clear
LGAV 050520Z 35014KT CAVOK 27/07 Q1012 NOSIG
LGAD - Andravida (civ/A, Greece
Distance from station: W 124 km
Updated: 05-07-2022 08:20
Clear  
Clear  
   Wind: West 9.3 km/h
Wind: West 9.3 km/h
Temperature: 23°C
Dew Point: 11°C
Humidity: 47%
Barometer: 1012 hPa
Visibility: More than 10 km
Cloud details: Clear
LGAD 050520Z 27005KT CAVOK 23/11 Q1012
LGKL - Kalamata (hel-Af, Greece
Distance from station: SSW 124 km
Updated: 05-07-2022 08:20
Clear  
Clear  
   Wind: Calm
Wind: Calm
Temperature: 21°C
Dew Point: 11°C
Humidity: 53%
Barometer: 1012 hPa
Visibility: More than 10 km
Cloud details: Clear
LGKL 050520Z 00000KT CAVOK 21/11 Q1012
LGBL - Nea Anchialos, Greece
Distance from station: N 129 km
Updated: 05-07-2022 08:20
Clear  
Clear  
   Wind: Calm
Wind: Calm
Temperature: 25°C
Dew Point: 9°C
Humidity: 36%
Barometer: 1015 hPa
Visibility: More than 10 km
Cloud details: Clear
LGBL 050520Z 00000KT CAVOK 25/09 Q1015

Script developed by  Saratoga-weather.org Adapted for the template by  Weerstation Leuven

You find our weather info also at:

European Weather Network

Weather Underground

AWEKAS

Citizen Weather Observer Program (CWOP)

UK Metoffice

Equipment we use:

Weather-station
Davis Wireless Vantage Pro2

Davis Wireless Vantage Pro2